AMS weather

Amsterdam Airport Schiphol
Amsterdam, Noord-Holland, Netherlands

Public forecast

Using degrees Celsius for public forecast. Weather courtesy of forecast.io.

METAR (pilot weather report)

Retrieved 2017/05/30 10:25 UTC (22 minutes ago):

EHAM 301025Z 25012KT 210V280 3600 -DZ FEW006 BKN007 16/15 Q1014 BECMG 8000

TAF (pilot weather forecast)

Retrieved 2017/05/30 06:27 UTC (4 hours ago):

TAF TAF EHAM 300433Z 3006/3112 24010KT 7000 SCT007 BKN008 PROB30 TEMPO 3006/3008 3500 BKN003 BECMG 3009/3012 25015KT 9999 NSW BKN015 BECMG 3012/3015 SCT018 BECMG 3017/3020 24008KT PROB30 TEMPO 3100/3105 7000 -RA BKN010 BECMG 3103/3106 31005KT